KAUS/AUS METAR and TAF weather

Enter ICAO airport designator
Station Type Date Time Source
KAUS METAR 2020/01/18 21:53 UTC NOAA

KAUS 182153Z 36016KT 10SM BKN075 BKN250 21/08 A3019 RMK AO2 SLP219 T02060078 $


Station Type Date Time Source
KAUS Decoded METAR 2020/01/18 21:53 UTC NOAA

AUSTIN-BERGSTROM INTERNATIONAL AIRPORT, TX, United States (KAUS) 30-11N 097-41W 172M
Jan 18, 2020 - 04:53 PM EST / 2020.01.18 2153 UTC
Wind: from the N (360 degrees) at 18 MPH (16 KT):0
Visibility: 10 mile(s):0
Sky conditions: mostly cloudy
Temperature: 69.1 F (20.6 C)
Dew Point: 46.0 F (7.8 C)
Relative Humidity: 43%
Pressure (altimeter): 30.19 in. Hg (1022 hPa)
ob: KAUS 182153Z 36016KT 10SM BKN075 BKN250 21/08 A3019 RMK AO2 SLP219 T02060078
cycle: 22

Station Type Date Time Source
KAUS TAF 2020/01/18 18:24 UTC NOAA

TAF KAUS 181723Z 1818/1924 36014G24KT P6SM SCT040
FM190000 01013KT P6SM SKC
FM191800 04012KT P6SM SKC

Example: see airport list